Time;durP1;ratioP1;P1;durP2;ratioP2;P2;SDS_P1;SDS_P2;PMS_P1;PMS_P2;Temp;Humidity;BMP_temperature;BMP_pressure;BME280_temperature;BME280_humidity;BME280_pressure;Samples;Min_cycle;Max_cycle;Signal;HPM_P1;HPM_P2
2023/12/18 00:00:21;;;;;;;;;;;4.00;99.90;;;;;;5072886;28;19982;-69
2023/12/18 00:02:48;;;;;;;;;;;4.10;99.90;;;;;;5071641;28;19928;-68
2023/12/18 00:05:15;;;;;;;;;;;4.00;99.90;;;;;;5074809;28;19970;-68
2023/12/18 00:07:43;;;;;;;;;;;4.00;99.90;;;;;;5066628;28;20350;-69
2023/12/18 00:10:09;;;;;;;;;;;4.00;99.90;;;;;;5065351;28;19960;-69
2023/12/18 00:12:36;;;;;;;;;;;3.90;99.90;;;;;;5070942;28;19933;-67
2023/12/18 00:15:04;;;;;;;;;;;3.90;99.90;;;;;;5072107;28;19925;-68
2023/12/18 00:17:30;;;;;;;;;;;4.00;99.90;;;;;;5059818;28;19924;-68
2023/12/18 00:19:57;;;;;;;;;;;4.10;99.90;;;;;;5072263;28;20333;-68
2023/12/18 00:22:24;;;;;;;;;;;4.20;99.90;;;;;;5073181;28;19970;-68
2023/12/18 00:24:52;;;;;;;;;;;4.20;99.90;;;;;;5072398;28;19968;-68
2023/12/18 00:27:18;;;;;;;;;;;4.20;99.90;;;;;;5073255;28;20372;-68
2023/12/18 00:29:48;;;;;;;;;;;4.20;99.90;;;;;;5072122;28;20379;-73
2023/12/18 00:32:15;;;;;;;;;;;4.20;99.90;;;;;;5070544;28;19928;-68
2023/12/18 00:34:42;;;;;;;;;;;4.30;99.90;;;;;;5061691;28;20290;-69
2023/12/18 00:37:08;;;;;;;;;;;4.30;99.90;;;;;;5072479;28;19990;-68
2023/12/18 00:39:35;;;;;;;;;;;4.30;99.90;;;;;;5073085;28;19924;-68
2023/12/18 00:42:04;;;;;;;;;;;4.30;99.90;;;;;;5072916;28;19924;-68
2023/12/18 00:44:31;;;;;;;;;;;4.30;99.90;;;;;;5072783;28;19925;-68
2023/12/18 00:46:57;;;;;;;;;;;4.30;99.90;;;;;;5073141;28;19986;-68
2023/12/18 00:49:27;;;;;;;;;;;4.30;99.90;;;;;;5069718;28;19928;-70
2023/12/18 00:51:54;;;;;;;;;;;4.40;99.90;;;;;;5072117;28;19925;-69
2023/12/18 00:54:20;;;;;;;;;;;4.40;99.90;;;;;;5069753;28;19928;-67
2023/12/18 00:56:47;;;;;;;;;;;4.40;99.90;;;;;;5058401;28;20429;-68
2023/12/18 00:59:15;;;;;;;;;;;4.30;99.90;;;;;;5071185;28;19970;-67
2023/12/18 01:01:43;;;;;;;;;;;4.40;99.90;;;;;;5057680;28;19960;-68
2023/12/18 01:04:09;;;;;;;;;;;4.40;99.90;;;;;;5075242;28;19968;-68
2023/12/18 01:06:37;;;;;;;;;;;4.40;99.90;;;;;;5071124;28;19978;-68
2023/12/18 01:09:03;;;;;;;;;;;4.40;99.90;;;;;;5069727;28;19932;-68
2023/12/18 01:11:30;;;;;;;;;;;4.40;99.90;;;;;;5072145;28;20347;-68
2023/12/18 01:13:57;;;;;;;;;;;4.40;99.90;;;;;;5072159;28;19946;-68
2023/12/18 01:16:25;;;;;;;;;;;4.40;99.90;;;;;;5071942;28;19928;-68
2023/12/18 01:18:52;;;;;;;;;;;4.50;99.90;;;;;;5063294;28;20383;-69
2023/12/18 01:21:19;;;;;;;;;;;4.50;99.90;;;;;;5071164;28;19929;-69
2023/12/18 01:23:45;;;;;;;;;;;4.50;99.90;;;;;;5073098;28;20018;-69
2023/12/18 01:26:12;;;;;;;;;;;4.50;99.90;;;;;;5070967;28;19924;-69
2023/12/18 01:28:40;;;;;;;;;;;4.50;99.90;;;;;;5071565;28;19932;-69
2023/12/18 01:31:07;;;;;;;;;;;4.60;99.90;;;;;;5072809;28;19925;-69
2023/12/18 01:33:36;;;;;;;;;;;4.60;99.90;;;;;;5070331;28;19924;-69
2023/12/18 01:36:03;;;;;;;;;;;4.60;99.90;;;;;;5063738;28;19932;-69
2023/12/18 01:38:30;;;;;;;;;;;4.60;99.90;;;;;;5062237;28;20372;-69
2023/12/18 01:40:56;;;;;;;;;;;4.60;99.90;;;;;;5070973;28;19950;-69
2023/12/18 01:43:22;;;;;;;;;;;4.60;99.90;;;;;;5071401;28;19931;-69
2023/12/18 01:45:50;;;;;;;;;;;4.70;99.90;;;;;;5072004;28;19932;-69
2023/12/18 01:48:17;;;;;;;;;;;4.70;99.90;;;;;;5069268;28;20339;-69
2023/12/18 01:50:45;;;;;;;;;;;4.70;99.90;;;;;;5069968;28;19954;-69
2023/12/18 01:53:12;;;;;;;;;;;4.70;99.90;;;;;;5071498;28;19928;-69
2023/12/18 01:55:38;;;;;;;;;;;4.70;99.90;;;;;;5070321;28;20107;-68
2023/12/18 01:58:05;;;;;;;;;;;4.70;99.90;;;;;;5063756;28;19925;-68
2023/12/18 02:00:32;;;;;;;;;;;4.70;99.90;;;;;;5069305;28;19947;-68
2023/12/18 02:03:00;;;;;;;;;;;4.70;99.90;;;;;;5065841;28;19924;-69
2023/12/18 02:05:27;;;;;;;;;;;4.70;99.90;;;;;;5070679;28;19970;-69
2023/12/18 02:07:55;;;;;;;;;;;4.80;99.90;;;;;;5067572;28;19994;-69
2023/12/18 02:10:22;;;;;;;;;;;4.80;99.90;;;;;;5070677;28;20284;-70
2023/12/18 02:12:48;;;;;;;;;;;4.80;99.90;;;;;;5071979;28;19925;-69
2023/12/18 02:15:15;;;;;;;;;;;4.80;99.90;;;;;;5069434;28;19924;-70
2023/12/18 02:17:42;;;;;;;;;;;4.80;99.90;;;;;;5069912;28;19924;-70
2023/12/18 02:20:09;;;;;;;;;;;4.80;99.90;;;;;;5069629;28;19978;-69
2023/12/18 02:22:44;;;;;;;;;;;4.80;99.90;;;;;;5071250;28;19925;-69
2023/12/18 02:25:11;;;;;;;;;;;4.80;99.90;;;;;;5065543;28;20008;-68
2023/12/18 02:27:39;;;;;;;;;;;4.80;99.90;;;;;;5070878;28;19928;-68
2023/12/18 02:30:06;;;;;;;;;;;4.80;99.90;;;;;;5070647;28;19958;-68
2023/12/18 02:32:33;;;;;;;;;;;4.90;99.90;;;;;;5071240;28;19978;-69
2023/12/18 02:34:59;;;;;;;;;;;4.90;99.90;;;;;;5054657;28;19925;-68
2023/12/18 02:37:27;;;;;;;;;;;4.90;99.90;;;;;;5071155;28;19977;-68
2023/12/18 02:39:55;;;;;;;;;;;4.90;99.90;;;;;;5068962;28;19925;-68
2023/12/18 02:42:22;;;;;;;;;;;4.90;99.90;;;;;;5072298;28;20337;-69
2023/12/18 02:44:49;;;;;;;;;;;4.90;99.90;;;;;;5074584;28;19929;-68
2023/12/18 02:47:16;;;;;;;;;;;4.90;99.90;;;;;;5071814;28;19970;-68
2023/12/18 02:49:43;;;;;;;;;;;4.90;99.90;;;;;;5073379;28;19924;-68
2023/12/18 02:52:10;;;;;;;;;;;4.90;99.90;;;;;;5075835;28;20011;-69
2023/12/18 02:54:37;;;;;;;;;;;4.90;99.90;;;;;;5074258;28;19924;-68
2023/12/18 02:57:05;;;;;;;;;;;4.90;99.90;;;;;;5071176;28;19924;-68
2023/12/18 02:59:32;;;;;;;;;;;4.90;99.90;;;;;;5074166;28;19928;-68
2023/12/18 03:01:59;;;;;;;;;;;4.90;99.90;;;;;;5072109;28;20379;-68
2023/12/18 03:04:25;;;;;;;;;;;5.00;99.90;;;;;;5074310;28;19932;-69
2023/12/18 03:06:52;;;;;;;;;;;5.00;99.90;;;;;;5074888;28;19975;-68
2023/12/18 03:09:19;;;;;;;;;;;5.00;99.90;;;;;;5073441;28;20359;-69
2023/12/18 03:11:46;;;;;;;;;;;5.00;99.90;;;;;;5074617;28;19977;-69
2023/12/18 03:14:14;;;;;;;;;;;5.00;99.90;;;;;;5074349;28;19970;-69
2023/12/18 03:16:40;;;;;;;;;;;5.00;99.90;;;;;;5073195;28;20353;-69
2023/12/18 03:19:07;;;;;;;;;;;5.10;99.90;;;;;;5072375;28;19925;-69
2023/12/18 03:21:34;;;;;;;;;;;5.00;99.90;;;;;;5074110;28;19947;-69
2023/12/18 03:24:01;;;;;;;;;;;5.10;99.90;;;;;;5072963;28;19966;-69
2023/12/18 03:26:27;;;;;;;;;;;5.00;99.90;;;;;;5073780;28;19928;-69
2023/12/18 03:28:54;;;;;;;;;;;5.00;99.90;;;;;;5068673;28;20013;-69
2023/12/18 03:31:22;;;;;;;;;;;5.00;99.90;;;;;;5072682;28;19924;-69
2023/12/18 03:33:49;;;;;;;;;;;5.00;99.90;;;;;;5073247;28;19952;-69
2023/12/18 03:36:16;;;;;;;;;;;5.00;99.90;;;;;;5073941;28;20339;-69
2023/12/18 03:38:42;;;;;;;;;;;5.00;99.90;;;;;;5073157;28;19924;-70
2023/12/18 03:41:09;;;;;;;;;;;5.00;99.90;;;;;;5073926;28;19924;-69
2023/12/18 03:43:36;;;;;;;;;;;5.00;99.90;;;;;;5073140;28;19924;-69
2023/12/18 03:46:03;;;;;;;;;;;5.00;99.90;;;;;;5074972;28;19925;-70
2023/12/18 03:48:31;;;;;;;;;;;5.00;99.90;;;;;;5067105;28;19972;-69
2023/12/18 03:50:58;;;;;;;;;;;5.00;99.90;;;;;;5071702;28;19992;-68
2023/12/18 03:53:24;;;;;;;;;;;5.00;99.90;;;;;;5071740;28;20015;-69
2023/12/18 03:55:51;;;;;;;;;;;5.00;99.90;;;;;;5073476;28;19976;-69
2023/12/18 03:58:18;;;;;;;;;;;5.10;99.90;;;;;;5072763;28;20322;-69
2023/12/18 04:00:44;;;;;;;;;;;5.10;99.90;;;;;;5072441;28;19970;-69
2023/12/18 04:03:10;;;;;;;;;;;5.10;99.90;;;;;;5072160;28;19924;-69
2023/12/18 04:05:39;;;;;;;;;;;5.10;99.90;;;;;;5073913;28;19948;-69
2023/12/18 04:08:06;;;;;;;;;;;5.10;99.90;;;;;;5068048;28;19974;-69
2023/12/18 04:10:32;;;;;;;;;;;5.10;99.90;;;;;;5072418;28;20029;-69
2023/12/18 04:12:59;;;;;;;;;;;5.10;99.90;;;;;;5073603;28;20391;-69
2023/12/18 04:15:26;;;;;;;;;;;5.10;99.90;;;;;;5074200;28;20371;-69
2023/12/18 04:17:55;;;;;;;;;;;5.10;99.90;;;;;;5073738;28;19924;-69
2023/12/18 04:20:21;;;;;;;;;;;5.20;99.90;;;;;;5071219;28;20022;-69
2023/12/18 04:22:50;;;;;;;;;;;5.20;99.90;;;;;;5077751;28;19929;-69
2023/12/18 04:25:16;;;;;;;;;;;5.20;99.90;;;;;;5054242;28;19928;-69
2023/12/18 04:27:43;;;;;;;;;;;5.20;99.90;;;;;;5071334;28;19967;-69
2023/12/18 04:30:10;;;;;;;;;;;5.20;99.90;;;;;;5068645;28;20465;-69
2023/12/18 04:32:37;;;;;;;;;;;5.20;99.90;;;;;;5072073;28;19978;-69
2023/12/18 04:35:04;;;;;;;;;;;5.20;99.90;;;;;;5070300;28;19928;-70
2023/12/18 04:37:32;;;;;;;;;;;5.20;99.90;;;;;;5073457;28;19974;-69
2023/12/18 04:40:00;;;;;;;;;;;5.20;99.90;;;;;;5071432;28;19933;-69
2023/12/18 04:42:27;;;;;;;;;;;5.20;99.90;;;;;;5070874;28;20368;-69
2023/12/18 04:44:54;;;;;;;;;;;5.30;99.90;;;;;;5072038;28;19925;-69
2023/12/18 04:47:21;;;;;;;;;;;5.30;99.90;;;;;;5071286;28;19925;-69
2023/12/18 04:49:47;;;;;;;;;;;5.30;99.90;;;;;;5070990;28;19928;-69
2023/12/18 04:52:14;;;;;;;;;;;5.30;99.90;;;;;;5058540;28;19925;-69
2023/12/18 04:54:41;;;;;;;;;;;5.30;99.90;;;;;;5064211;28;19978;-69
2023/12/18 04:57:09;;;;;;;;;;;5.30;99.90;;;;;;5072843;28;19924;-69
2023/12/18 04:59:36;;;;;;;;;;;5.30;99.90;;;;;;5071419;28;19933;-69
2023/12/18 05:02:02;;;;;;;;;;;5.30;99.90;;;;;;5064851;28;19982;-69
2023/12/18 05:04:29;;;;;;;;;;;5.40;99.90;;;;;;5071507;28;19925;-69
2023/12/18 05:06:56;;;;;;;;;;;5.40;99.90;;;;;;5072620;28;19925;-69
2023/12/18 05:09:22;;;;;;;;;;;5.40;99.90;;;;;;5069417;28;19932;-69
2023/12/18 05:11:49;;;;;;;;;;;5.40;99.90;;;;;;5072572;28;19979;-69
2023/12/18 05:14:18;;;;;;;;;;;5.40;99.90;;;;;;5071626;28;19924;-70
2023/12/18 05:16:45;;;;;;;;;;;5.50;99.90;;;;;;5072447;28;19924;-68
2023/12/18 05:19:12;;;;;;;;;;;5.50;99.90;;;;;;5070536;28;19986;-68
2023/12/18 05:21:38;;;;;;;;;;;5.50;99.90;;;;;;5070567;28;20380;-68
2023/12/18 05:24:05;;;;;;;;;;;5.50;99.90;;;;;;5071415;28;20010;-69
2023/12/18 05:26:32;;;;;;;;;;;5.50;99.90;;;;;;5063192;28;19925;-69
2023/12/18 05:28:59;;;;;;;;;;;5.50;99.90;;;;;;5070973;28;19931;-68
2023/12/18 05:31:28;;;;;;;;;;;5.50;99.90;;;;;;5067262;28;20015;-69
2023/12/18 05:33:54;;;;;;;;;;;5.50;99.90;;;;;;5066306;28;19924;-69
2023/12/18 05:36:21;;;;;;;;;;;5.50;99.90;;;;;;5070605;28;19993;-69
2023/12/18 05:38:48;;;;;;;;;;;5.50;99.90;;;;;;5071875;28;19939;-69
2023/12/18 05:41:15;;;;;;;;;;;5.40;99.90;;;;;;5071803;28;19924;-69
2023/12/18 05:43:42;;;;;;;;;;;5.40;99.90;;;;;;5072626;28;19925;-69
2023/12/18 05:46:10;;;;;;;;;;;5.40;99.90;;;;;;5071379;28;20041;-70
2023/12/18 05:48:38;;;;;;;;;;;5.50;99.90;;;;;;5070795;28;19943;-68
2023/12/18 05:51:05;;;;;;;;;;;5.40;99.90;;;;;;5069773;28;19925;-68
2023/12/18 05:53:32;;;;;;;;;;;5.40;99.90;;;;;;5063965;28;19925;-68
2023/12/18 05:55:59;;;;;;;;;;;5.40;99.90;;;;;;5062904;28;19924;-69
2023/12/18 05:58:25;;;;;;;;;;;5.40;99.90;;;;;;5072656;28;19948;-69
2023/12/18 06:00:52;;;;;;;;;;;5.40;99.90;;;;;;5073455;28;20558;-70
2023/12/18 06:03:19;;;;;;;;;;;5.30;99.90;;;;;;5070597;28;20013;-69
2023/12/18 06:05:47;;;;;;;;;;;5.30;99.90;;;;;;5071913;28;19925;-69
2023/12/18 06:08:14;;;;;;;;;;;5.30;99.90;;;;;;5061635;28;19940;-67
2023/12/18 06:10:41;;;;;;;;;;;5.30;99.90;;;;;;5070380;28;20425;-69
2023/12/18 06:13:07;;;;;;;;;;;5.30;99.90;;;;;;5071629;28;20018;-69
2023/12/18 06:15:34;;;;;;;;;;;5.30;99.90;;;;;;5064506;28;19964;-68
2023/12/18 06:18:01;;;;;;;;;;;5.40;99.90;;;;;;5063663;28;20371;-68
2023/12/18 06:20:28;;;;;;;;;;;5.40;99.90;;;;;;5067339;28;19924;-70
2023/12/18 06:22:56;;;;;;;;;;;5.40;99.90;;;;;;5068376;28;20302;-69
2023/12/18 06:25:23;;;;;;;;;;;5.40;99.90;;;;;;5059642;28;19929;-69
2023/12/18 06:27:50;;;;;;;;;;;5.40;99.90;;;;;;5067430;28;19924;-69
2023/12/18 06:30:17;;;;;;;;;;;5.50;99.90;;;;;;5053196;28;19978;-69
2023/12/18 06:32:43;;;;;;;;;;;5.40;99.90;;;;;;5066760;28;19939;-69
2023/12/18 06:35:10;;;;;;;;;;;5.50;99.90;;;;;;5069781;28;19954;-68
2023/12/18 06:37:37;;;;;;;;;;;5.50;99.90;;;;;;5068074;28;19924;-68
2023/12/18 06:40:06;;;;;;;;;;;5.50;99.90;;;;;;5054633;28;19962;-69
2023/12/18 06:42:33;;;;;;;;;;;5.50;99.90;;;;;;5067747;28;19994;-69
2023/12/18 06:44:59;;;;;;;;;;;5.50;99.90;;;;;;5058048;28;19960;-69
2023/12/18 06:47:26;;;;;;;;;;;5.50;99.90;;;;;;5070500;28;19978;-68
2023/12/18 06:49:53;;;;;;;;;;;5.50;99.90;;;;;;5069169;28;19995;-68
2023/12/18 06:52:20;;;;;;;;;;;5.50;99.90;;;;;;5070065;28;20387;-68
2023/12/18 06:54:47;;;;;;;;;;;5.50;99.90;;;;;;5071288;28;19978;-69
2023/12/18 06:57:16;;;;;;;;;;;5.50;99.90;;;;;;5071608;28;19970;-71
2023/12/18 06:59:42;;;;;;;;;;;5.50;99.90;;;;;;5069507;28;19964;-70
2023/12/18 07:02:09;;;;;;;;;;;5.50;99.90;;;;;;5069657;28;19994;-70
2023/12/18 07:04:36;;;;;;;;;;;5.50;99.90;;;;;;5071330;28;20405;-70
2023/12/18 07:07:03;;;;;;;;;;;5.50;99.90;;;;;;5070613;28;19925;-70
2023/12/18 07:09:29;;;;;;;;;;;5.50;99.90;;;;;;5069253;28;19978;-69
2023/12/18 07:11:56;;;;;;;;;;;5.50;99.90;;;;;;5070979;28;20021;-70
2023/12/18 07:14:24;;;;;;;;;;;5.50;99.90;;;;;;5058905;28;19924;-71
2023/12/18 07:16:52;;;;;;;;;;;5.40;99.90;;;;;;5062649;28;19924;-70
2023/12/18 07:19:21;;;;;;;;;;;5.50;99.90;;;;;;5079096;22;20045;-70
2023/12/18 07:21:48;;;;;;;;;;;5.50;99.90;;;;;;4970059;28;19934;-71
2023/12/18 07:24:15;;;;;;;;;;;5.40;99.90;;;;;;4963973;28;19926;-71
2023/12/18 07:26:41;;;;;;;;;;;5.40;99.90;;;;;;4957261;28;20299;-70
2023/12/18 07:29:08;;;;;;;;;;;5.40;99.90;;;;;;4969697;28;20014;-68
2023/12/18 07:31:36;;;;;;;;;;;5.50;99.90;;;;;;4971418;28;19930;-68
2023/12/18 07:34:03;;;;;;;;;;;5.50;99.90;;;;;;4971538;28;20325;-70
2023/12/18 07:36:30;;;;;;;;;;;5.50;99.90;;;;;;4975562;28;19930;-73
2023/12/18 07:38:57;;;;;;;;;;;5.50;99.90;;;;;;4972789;28;19926;-72
2023/12/18 07:41:24;;;;;;;;;;;5.50;99.90;;;;;;4972513;28;19988;-72
2023/12/18 07:43:51;;;;;;;;;;;5.50;99.90;;;;;;4971995;28;20025;-72
2023/12/18 07:46:19;;;;;;;;;;;5.50;99.90;;;;;;4972713;28;19996;-73
2023/12/18 07:48:49;;;;;;;;;;;5.50;99.90;;;;;;4970584;28;19948;-72
2023/12/18 07:51:16;;;;;;;;;;;5.50;99.90;;;;;;4970124;28;20380;-73
2023/12/18 07:53:44;;;;;;;;;;;5.50;99.90;;;;;;4968824;28;19966;-71
2023/12/18 07:56:11;;;;;;;;;;;5.50;99.90;;;;;;4962689;28;19934;-71
2023/12/18 07:58:40;;;;;;;;;;;5.50;99.90;;;;;;4966405;28;21007;-71
2023/12/18 08:01:06;;;;;;;;;;;5.50;99.90;;;;;;4967786;28;20448;-72
2023/12/18 08:03:33;;;;;;;;;;;5.50;99.90;;;;;;4971416;28;19930;-71
2023/12/18 08:06:01;;;;;;;;;;;5.40;99.90;;;;;;4968795;28;20346;-71
2023/12/18 08:08:28;;;;;;;;;;;5.40;99.90;;;;;;4970910;28;19934;-71
2023/12/18 08:10:55;;;;;;;;;;;5.40;99.90;;;;;;4971550;28;20168;-71
2023/12/18 08:13:23;;;;;;;;;;;5.40;99.90;;;;;;4972142;28;20413;-71
2023/12/18 08:15:50;;;;;;;;;;;5.40;99.90;;;;;;4968121;28;19953;-71
2023/12/18 08:18:16;;;;;;;;;;;5.40;99.90;;;;;;4967518;28;19999;-71
2023/12/18 08:20:43;;;;;;;;;;;5.40;99.90;;;;;;4966340;28;19934;-71
2023/12/18 08:23:11;;;;;;;;;;;5.50;99.90;;;;;;4967494;28;19930;-71
2023/12/18 08:25:38;;;;;;;;;;;5.50;99.90;;;;;;4975728;28;20397;-70
2023/12/18 08:28:05;;;;;;;;;;;5.50;99.90;;;;;;4965754;28;19968;-71
2023/12/18 08:30:32;;;;;;;;;;;5.50;99.90;;;;;;4968668;28;19980;-71
2023/12/18 08:32:58;;;;;;;;;;;5.40;99.90;;;;;;4964521;28;19957;-71
2023/12/18 08:35:25;;;;;;;;;;;5.40;99.90;;;;;;4971244;28;19927;-71
2023/12/18 08:37:52;;;;;;;;;;;5.40;99.90;;;;;;4959783;28;19961;-71
2023/12/18 08:40:20;;;;;;;;;;;5.40;99.90;;;;;;4971386;28;19972;-72
2023/12/18 08:42:47;;;;;;;;;;;5.40;99.90;;;;;;4960072;28;19962;-71
2023/12/18 08:45:14;;;;;;;;;;;5.50;99.90;;;;;;4969405;28;20341;-72
2023/12/18 08:47:40;;;;;;;;;;;5.40;99.90;;;;;;4970744;28;19965;-71
2023/12/18 08:50:07;;;;;;;;;;;5.50;99.90;;;;;;4970741;28;20415;-71
2023/12/18 08:52:35;;;;;;;;;;;5.50;99.90;;;;;;4968164;28;19926;-70
2023/12/18 08:55:02;;;;;;;;;;;5.50;99.90;;;;;;4971685;28;19926;-74
2023/12/18 08:57:30;;;;;;;;;;;5.40;99.90;;;;;;4968000;28;19966;-72
2023/12/18 08:59:57;;;;;;;;;;;5.40;99.90;;;;;;4965006;28;20658;-72
2023/12/18 09:02:24;;;;;;;;;;;5.40;99.90;;;;;;4965495;28;19980;-72
2023/12/18 09:04:51;;;;;;;;;;;5.30;99.90;;;;;;4967525;28;19953;-72
2023/12/18 09:07:17;;;;;;;;;;;5.30;99.90;;;;;;4966447;28;19937;-72
2023/12/18 09:09:44;;;;;;;;;;;5.40;99.90;;;;;;4968829;28;20295;-72
2023/12/18 09:12:11;;;;;;;;;;;5.30;99.90;;;;;;4973501;28;20037;-72
2023/12/18 09:14:39;;;;;;;;;;;5.30;99.90;;;;;;5015602;28;20024;-72
2023/12/18 09:17:05;;;;;;;;;;;5.30;99.90;;;;;;4975577;28;20019;-72
2023/12/18 09:19:32;;;;;;;;;;;5.30;99.90;;;;;;4967562;28;19934;-72
2023/12/18 09:21:59;;;;;;;;;;;5.30;99.90;;;;;;4955759;28;20029;-73
2023/12/18 09:24:26;;;;;;;;;;;5.30;99.90;;;;;;4965737;28;19972;-71
2023/12/18 09:26:53;;;;;;;;;;;5.40;99.90;;;;;;4970196;28;19980;-72
2023/12/18 09:29:20;;;;;;;;;;;5.30;99.90;;;;;;4981199;28;19995;-72
2023/12/18 09:31:48;;;;;;;;;;;5.30;99.90;;;;;;4972110;28;19956;-71
2023/12/18 09:34:15;;;;;;;;;;;5.30;99.90;;;;;;4970694;28;20446;-72
2023/12/18 09:36:41;;;;;;;;;;;5.40;99.90;;;;;;4966562;28;20024;-72
2023/12/18 09:39:09;;;;;;;;;;;5.40;99.90;;;;;;4961453;28;19927;-72
2023/12/18 09:41:36;;;;;;;;;;;5.40;99.90;;;;;;4967089;28;20408;-74
2023/12/18 09:44:03;;;;;;;;;;;5.40;99.90;;;;;;4970468;28;19930;-73
2023/12/18 09:46:29;;;;;;;;;;;5.40;99.90;;;;;;4965760;28;19969;-71
2023/12/18 09:48:57;;;;;;;;;;;5.40;99.90;;;;;;4952641;28;19973;-70
2023/12/18 09:51:25;;;;;;;;;;;5.50;99.90;;;;;;4974451;28;19930;-70
2023/12/18 09:53:53;;;;;;;;;;;5.50;99.90;;;;;;4974136;28;19926;-69
2023/12/18 09:56:21;;;;;;;;;;;5.50;99.90;;;;;;4969321;28;19980;-69
2023/12/18 09:58:47;;;;;;;;;;;5.40;99.90;;;;;;4970246;28;20020;-69
2023/12/18 10:01:15;;;;;;;;;;;5.50;99.90;;;;;;4968413;28;19926;-69
2023/12/18 10:03:41;;;;;;;;;;;5.40;99.90;;;;;;4972243;28;19995;-69
2023/12/18 10:06:10;;;;;;;;;;;5.50;99.90;;;;;;4969593;28;20075;-69
2023/12/18 10:08:37;;;;;;;;;;;5.50;99.90;;;;;;4970753;28;19980;-68
2023/12/18 10:11:04;;;;;;;;;;;5.60;99.90;;;;;;4973519;28;19926;-69
2023/12/18 10:13:31;;;;;;;;;;;5.60;99.90;;;;;;4972401;28;20031;-69
2023/12/18 10:15:58;;;;;;;;;;;5.60;99.90;;;;;;5004759;28;20023;-68
2023/12/18 10:18:25;;;;;;;;;;;5.70;99.90;;;;;;4970257;28;19926;-69
2023/12/18 10:20:52;;;;;;;;;;;5.70;99.90;;;;;;4980230;28;19970;-69
2023/12/18 10:23:20;;;;;;;;;;;5.70;99.90;;;;;;4969512;28;19948;-69
2023/12/18 10:25:47;;;;;;;;;;;5.70;99.90;;;;;;4970649;28;19972;-68
2023/12/18 10:28:14;;;;;;;;;;;5.70;99.90;;;;;;4970329;28;20270;-68
2023/12/18 10:30:41;;;;;;;;;;;5.80;99.90;;;;;;4971803;28;19934;-69
2023/12/18 10:33:09;;;;;;;;;;;5.80;99.90;;;;;;4976396;28;19965;-71
2023/12/18 10:35:37;;;;;;;;;;;5.80;99.90;;;;;;4971297;28;19937;-69
2023/12/18 10:38:05;;;;;;;;;;;5.80;99.90;;;;;;4969219;28;20393;-69
2023/12/18 10:40:33;;;;;;;;;;;5.70;99.90;;;;;;4997213;28;19972;-69
2023/12/18 10:43:06;;;;;;;;;;;5.70;99.90;;;;;;4969174;28;19930;-69
2023/12/18 10:45:33;;;;;;;;;;;5.80;99.90;;;;;;4972611;28;20020;-69
2023/12/18 10:48:01;;;;;;;;;;;5.80;99.90;;;;;;4970150;28;20392;-69
2023/12/18 10:50:29;;;;;;;;;;;5.90;99.90;;;;;;4996629;28;19925;-69
2023/12/18 10:52:58;;;;;;;;;;;5.90;99.90;;;;;;5011944;28;19933;-70
2023/12/18 10:55:25;;;;;;;;;;;5.90;99.90;;;;;;4969739;28;20344;-69
2023/12/18 10:57:53;;;;;;;;;;;5.90;99.90;;;;;;4993625;28;20316;-69
2023/12/18 11:00:21;;;;;;;;;;;5.90;99.90;;;;;;5001383;28;19978;-69
2023/12/18 11:02:49;;;;;;;;;;;5.90;99.90;;;;;;4968088;28;19977;-69
2023/12/18 11:05:16;;;;;;;;;;;6.00;99.90;;;;;;4965020;28;19927;-69
2023/12/18 11:07:43;;;;;;;;;;;6.00;99.90;;;;;;4969946;28;19976;-69
2023/12/18 11:10:10;;;;;;;;;;;6.00;99.90;;;;;;5008051;28;19985;-68
2023/12/18 11:12:38;;;;;;;;;;;6.00;99.90;;;;;;4972928;28;20339;-69
2023/12/18 11:15:15;;;;;;;;;;;5.90;99.90;;;;;;4981354;28;19934;-69
2023/12/18 11:17:48;;;;;;;;;;;6.00;99.90;;;;;;5006053;28;19930;-70
2023/12/18 11:20:19;;;;;;;;;;;6.00;99.90;;;;;;4972119;28;19933;-70
2023/12/18 11:22:46;;;;;;;;;;;6.00;99.90;;;;;;4972688;28;19987;-69
2023/12/18 11:25:13;;;;;;;;;;;6.00;99.90;;;;;;4978077;28;19945;-69
2023/12/18 11:27:41;;;;;;;;;;;6.00;99.90;;;;;;4974161;28;20397;-70
2023/12/18 11:30:22;;;;;;;;;;;6.10;99.90;;;;;;4974302;28;19930;-70
2023/12/18 11:32:48;;;;;;;;;;;6.10;99.90;;;;;;4971818;28;19930;-70
2023/12/18 11:35:15;;;;;;;;;;;6.10;99.90;;;;;;4973078;28;19926;-69
2023/12/18 11:37:45;;;;;;;;;;;6.10;99.90;;;;;;4977885;28;19930;-69
2023/12/18 11:40:31;;;;;;;;;;;6.10;99.90;;;;;;4971267;28;19995;-69
2023/12/18 11:42:58;;;;;;;;;;;6.10;99.90;;;;;;4957369;28;19972;-69
2023/12/18 11:45:26;;;;;;;;;;;6.20;99.90;;;;;;4981417;28;19980;-69
2023/12/18 11:47:53;;;;;;;;;;;6.20;99.90;;;;;;5010340;28;19926;-69
2023/12/18 11:50:20;;;;;;;;;;;6.20;99.90;;;;;;4995424;28;19930;-77
2023/12/18 11:52:49;;;;;;;;;;;6.30;99.90;;;;;;5005249;28;19970;-74
2023/12/18 11:55:37;;;;;;;;;;;6.30;99.90;;;;;;4998314;28;19926;-79
2023/12/18 11:58:04;;;;;;;;;;;6.30;99.90;;;;;;4967511;28;20389;-77
2023/12/18 12:00:33;;;;;;;;;;;6.30;99.90;;;;;;4972169;28;19926;-75
2023/12/18 12:03:00;;;;;;;;;;;6.30;99.90;;;;;;4970453;28;19926;-75
2023/12/18 12:05:27;;;;;;;;;;;6.30;99.90;;;;;;4967359;28;19930;-77
2023/12/18 12:07:54;;;;;;;;;;;6.40;99.90;;;;;;4967319;28;19934;-75
2023/12/18 12:10:21;;;;;;;;;;;6.40;99.90;;;;;;4960865;28;20309;-75
2023/12/18 12:12:52;;;;;;;;;;;6.40;99.90;;;;;;4959981;28;19983;-77
2023/12/18 12:15:22;;;;;;;;;;;6.40;99.90;;;;;;4972493;28;19926;-73
2023/12/18 12:17:50;;;;;;;;;;;6.40;99.90;;;;;;4970732;28;19996;-74
2023/12/18 12:20:17;;;;;;;;;;;6.40;99.90;;;;;;4971058;28;20083;-75
2023/12/18 12:22:44;;;;;;;;;;;6.50;99.90;;;;;;4967170;28;19974;-74
2023/12/18 12:25:11;;;;;;;;;;;6.40;99.90;;;;;;4970431;28;19998;-75
2023/12/18 12:27:38;;;;;;;;;;;6.40;99.90;;;;;;4970917;28;19946;-75
2023/12/18 12:30:05;;;;;;;;;;;6.50;99.90;;;;;;4971541;28;19926;-75
2023/12/18 12:32:32;;;;;;;;;;;6.50;99.90;;;;;;4969562;28;19999;-75
2023/12/18 12:35:01;;;;;;;;;;;6.50;99.90;;;;;;4971953;28;19985;-74
2023/12/18 12:37:27;;;;;;;;;;;6.40;99.90;;;;;;4971898;28;20029;-74
2023/12/18 12:39:57;;;;;;;;;;;6.40;99.90;;;;;;4967296;28;19979;-74
2023/12/18 12:42:24;;;;;;;;;;;6.50;99.90;;;;;;4968167;28;20003;-75
2023/12/18 12:44:51;;;;;;;;;;;6.40;99.90;;;;;;4960603;28;20644;-75
2023/12/18 12:47:18;;;;;;;;;;;6.50;99.90;;;;;;4958802;28;20119;-75
2023/12/18 12:49:46;;;;;;;;;;;6.40;99.90;;;;;;4971496;28;19980;-74
2023/12/18 12:52:15;;;;;;;;;;;6.40;99.90;;;;;;4968088;28;19931;-73
2023/12/18 12:54:43;;;;;;;;;;;6.40;99.90;;;;;;4970343;28;19926;-74
2023/12/18 12:57:11;;;;;;;;;;;6.50;99.90;;;;;;4973320;28;19983;-75
2023/12/18 12:59:50;;;;;;;;;;;6.40;99.90;;;;;;4971111;28;19972;-75
2023/12/18 13:02:17;;;;;;;;;;;6.40;99.90;;;;;;4968932;28;20326;-73
2023/12/18 13:04:43;;;;;;;;;;;6.30;99.90;;;;;;4969599;28;19933;-74
2023/12/18 13:07:11;;;;;;;;;;;6.30;99.90;;;;;;4966897;28;19941;-74
2023/12/18 13:09:39;;;;;;;;;;;6.40;99.90;;;;;;4968927;28;19926;-74
2023/12/18 13:12:06;;;;;;;;;;;6.30;99.90;;;;;;4969613;28;19972;-74
2023/12/18 13:14:33;;;;;;;;;;;6.40;99.90;;;;;;4972980;28;20362;-74
2023/12/18 13:17:00;;;;;;;;;;;6.30;99.90;;;;;;4968770;28;19933;-75
2023/12/18 13:19:26;;;;;;;;;;;6.30;99.90;;;;;;4971311;28;19926;-73
2023/12/18 13:21:53;;;;;;;;;;;6.30;99.90;;;;;;4980798;28;19930;-76
2023/12/18 13:24:20;;;;;;;;;;;6.20;99.90;;;;;;4968102;28;19926;-73
2023/12/18 13:26:48;;;;;;;;;;;6.20;99.90;;;;;;4961314;28;19934;-75
2023/12/18 13:29:15;;;;;;;;;;;6.20;99.90;;;;;;4970156;28;19972;-75
2023/12/18 13:31:42;;;;;;;;;;;6.20;99.90;;;;;;4965689;28;19930;-75
2023/12/18 13:34:08;;;;;;;;;;;6.20;99.90;;;;;;4971662;28;20388;-74
2023/12/18 13:36:35;;;;;;;;;;;6.10;99.90;;;;;;4972879;28;19934;-75
2023/12/18 13:39:02;;;;;;;;;;;6.10;99.90;;;;;;4970745;28;19926;-69
2023/12/18 13:41:31;;;;;;;;;;;6.10;99.90;;;;;;4962889;28;19926;-69
2023/12/18 13:43:59;;;;;;;;;;;6.00;99.90;;;;;;4974016;28;19933;-69
2023/12/18 13:46:26;;;;;;;;;;;5.90;99.90;;;;;;4970300;28;20393;-70
2023/12/18 13:48:53;;;;;;;;;;;5.90;99.90;;;;;;4962168;28;19980;-69
2023/12/18 13:51:19;;;;;;;;;;;5.80;99.90;;;;;;4966636;28;20411;-70
2023/12/18 13:53:46;;;;;;;;;;;5.80;99.90;;;;;;4968578;28;19938;-69
2023/12/18 13:56:13;;;;;;;;;;;5.80;99.90;;;;;;4961909;28;19930;-69
2023/12/18 13:58:40;;;;;;;;;;;5.70;99.90;;;;;;4967232;28;19972;-69
2023/12/18 14:01:08;;;;;;;;;;;5.70;99.90;;;;;;4969997;28;19926;-69
2023/12/18 14:03:35;;;;;;;;;;;5.50;99.90;;;;;;4966558;28;19927;-69
2023/12/18 14:06:03;;;;;;;;;;;5.50;99.90;;;;;;4988062;28;19974;-69
2023/12/18 14:08:30;;;;;;;;;;;5.50;99.90;;;;;;4970233;28;19941;-71
2023/12/18 14:10:59;;;;;;;;;;;5.50;99.90;;;;;;4968004;28;20326;-70
2023/12/18 14:13:26;;;;;;;;;;;5.50;99.90;;;;;;4971504;28;20362;-71
2023/12/18 14:15:53;;;;;;;;;;;5.50;99.90;;;;;;4966640;28;19926;-69
2023/12/18 14:18:21;;;;;;;;;;;5.50;99.90;;;;;;4969036;28;19938;-68
2023/12/18 14:20:48;;;;;;;;;;;5.40;99.90;;;;;;4968580;28;19987;-69
2023/12/18 14:23:14;;;;;;;;;;;5.30;99.90;;;;;;4965541;28;20502;-69
2023/12/18 14:25:41;;;;;;;;;;;5.30;99.90;;;;;;4969095;28;19926;-68
2023/12/18 14:28:08;;;;;;;;;;;5.40;99.90;;;;;;4969690;28;19926;-69
2023/12/18 14:30:35;;;;;;;;;;;5.30;99.90;;;;;;4973256;28;19976;-68